Time;durP1;ratioP1;P1;durP2;ratioP2;P2;SDS_P1;SDS_P2;PMS_P1;PMS_P2;Temp;Humidity;BMP_temperature;BMP_pressure;BME280_temperature;BME280_humidity;BME280_pressure;Samples;Min_cycle;Max_cycle;Signal;HPM_P1;HPM_P2
2022/12/11 00:01:30;;;;;;;11.15;5.45;;;5.40;57.90;;;;;;6247692;28;20046;-78
2022/12/11 00:04:31;;;;;;;12.20;5.95;;;5.40;57.90;;;;;;6263457;28;20033;-78
2022/12/11 00:07:32;;;;;;;12.13;6.55;;;5.30;57.90;;;;;;6254097;28;20044;-77
2022/12/11 00:10:33;;;;;;;13.55;5.30;;;5.30;57.90;;;;;;6249143;28;20520;-78
2022/12/11 00:13:34;;;;;;;13.25;5.45;;;5.30;58.10;;;;;;6261678;28;20034;-78
2022/12/11 00:16:35;;;;;;;9.60;5.65;;;5.30;58.10;;;;;;6244954;28;20068;-79
2022/12/11 00:19:36;;;;;;;16.73;6.55;;;5.30;58.20;;;;;;6243764;28;20041;-78
2022/12/11 00:22:37;;;;;;;10.63;5.22;;;5.30;58.20;;;;;;6252830;28;20076;-78
2022/12/11 00:25:45;;;;;;;8.43;4.88;;;5.30;58.10;;;;;;6262667;28;20026;-79
2022/12/11 00:28:46;;;;;;;9.82;4.85;;;5.30;58.20;;;;;;6243074;28;20038;-79
2022/12/11 00:31:47;;;;;;;9.73;4.90;;;5.30;58.10;;;;;;6245415;28;20041;-77
2022/12/11 00:34:48;;;;;;;11.40;5.18;;;5.30;58.20;;;;;;6247661;28;20033;-78
2022/12/11 00:37:49;;;;;;;14.63;6.15;;;5.20;58.20;;;;;;6259919;28;20048;-78
2022/12/11 00:40:50;;;;;;;15.10;6.35;;;5.30;58.30;;;;;;6244511;28;20061;-79
2022/12/11 00:43:51;;;;;;;11.50;5.80;;;5.30;58.20;;;;;;6243334;28;20036;-78
2022/12/11 00:46:52;;;;;;;13.63;6.70;;;5.30;58.20;;;;;;6256801;28;20037;-78
2022/12/11 00:49:52;;;;;;;17.88;6.47;;;5.20;58.20;;;;;;6262038;28;20121;-78
2022/12/11 00:52:53;;;;;;;11.80;5.35;;;5.20;58.30;;;;;;6262818;28;20060;-79
2022/12/11 00:55:54;;;;;;;11.50;6.47;;;5.20;58.30;;;;;;6261779;28;20037;-79
2022/12/11 00:58:56;;;;;;;11.95;6.38;;;5.20;58.20;;;;;;6244670;28;20175;-79
2022/12/11 01:01:57;;;;;;;9.13;5.18;;;5.10;58.30;;;;;;6262471;28;20071;-78
2022/12/11 01:04:58;;;;;;;13.63;5.55;;;5.10;58.30;;;;;;6260331;28;20045;-78
2022/12/11 01:07:59;;;;;;;14.35;7.03;;;5.00;58.30;;;;;;6245815;28;20041;-79
2022/12/11 01:11:06;;;;;;;8.85;5.10;;;5.00;58.30;;;;;;6242889;28;20099;-78
2022/12/11 01:14:08;;;;;;;11.57;5.65;;;5.00;58.30;;;;;;6245073;28;20115;-77
2022/12/11 01:17:10;;;;;;;11.65;5.38;;;4.90;58.40;;;;;;6234538;28;20037;-78
2022/12/11 01:20:12;;;;;;;16.65;5.55;;;4.90;58.50;;;;;;6217972;28;20365;-78
2022/12/11 01:23:13;;;;;;;10.55;5.78;;;4.80;58.50;;;;;;6234638;28;20045;-79
2022/12/11 01:26:14;;;;;;;14.60;5.70;;;4.80;58.50;;;;;;6221440;28;20052;-78
2022/12/11 01:29:15;;;;;;;13.25;5.30;;;4.80;58.50;;;;;;6224724;28;20340;-79
2022/12/11 01:32:16;;;;;;;10.45;4.10;;;4.80;58.60;;;;;;6261408;28;20045;-79
2022/12/11 01:35:18;;;;;;;14.85;6.78;;;4.80;58.60;;;;;;6261103;28;20034;-79
2022/12/11 01:38:19;;;;;;;12.02;5.85;;;4.80;58.60;;;;;;6227792;28;20045;-77
2022/12/11 01:41:21;;;;;;;7.00;4.25;;;4.80;58.70;;;;;;6260490;28;20148;-78
2022/12/11 01:44:22;;;;;;;7.93;4.22;;;4.80;58.60;;;;;;6260681;28;20360;-79
2022/12/11 01:47:23;;;;;;;10.13;5.25;;;4.70;58.60;;;;;;6218754;28;20045;-79
2022/12/11 01:50:24;;;;;;;17.42;6.50;;;4.70;58.70;;;;;;6220570;28;20029;-79
2022/12/11 01:53:33;;;;;;;12.32;5.53;;;4.70;58.80;;;;;;6240766;28;20057;-78
2022/12/11 01:56:36;;;;;;;13.48;6.53;;;4.70;58.90;;;;;;6259444;28;20037;-78
2022/12/11 01:59:41;;;;;;;13.10;5.05;;;4.60;59.00;;;;;;6242619;28;20041;-79
2022/12/11 02:02:43;;;;;;;9.32;4.53;;;4.60;59.00;;;;;;6241500;28;20378;-78
2022/12/11 02:05:44;;;;;;;18.05;4.38;;;4.60;59.10;;;;;;6243818;28;20034;-80
2022/12/11 02:08:45;;;;;;;6.82;4.15;;;4.60;59.10;;;;;;6258695;28;20042;-79
2022/12/11 02:11:59;;;;;;;13.80;5.93;;;4.60;59.10;;;;;;6244082;28;20037;-78
2022/12/11 02:15:06;;;;;;;9.63;5.70;;;4.60;59.20;;;;;;6240828;28;20056;-78
2022/12/11 02:18:19;;;;;;;8.88;5.43;;;4.60;59.20;;;;;;6244230;28;20041;-78
2022/12/11 02:21:27;;;;;;;16.13;6.05;;;4.60;59.20;;;;;;6235270;28;20034;-79
2022/12/11 02:25:05;;;;;;;8.77;4.32;;;4.60;59.20;;;;;;6218796;28;20033;-78
2022/12/11 02:28:29;;;;;;;15.67;7.30;;;4.60;59.20;;;;;;6216873;28;20033;-78
2022/12/11 02:31:43;;;;;;;14.18;5.47;;;4.60;59.20;;;;;;6258927;28;20038;-78
2022/12/11 02:34:54;;;;;;;17.58;6.57;;;4.70;59.10;;;;;;6218644;28;20033;-78
2022/12/11 02:38:07;;;;;;;9.38;5.13;;;4.60;59.00;;;;;;6218787;28;20041;-78
2022/12/11 02:41:11;;;;;;;17.70;6.10;;;4.60;59.00;;;;;;6221688;28;20046;-78
2022/12/11 02:44:14;;;;;;;15.85;5.97;;;4.60;59.10;;;;;;6237502;28;20042;-79
2022/12/11 02:47:18;;;;;;;12.95;6.03;;;4.60;59.10;;;;;;6225784;28;20088;-80
2022/12/11 02:50:22;;;;;;;10.23;4.90;;;4.60;59.10;;;;;;6240906;28;20038;-77
2022/12/11 02:53:27;;;;;;;21.75;7.60;;;4.50;59.10;;;;;;6251686;28;20037;-78
2022/12/11 02:56:46;;;;;;;15.20;5.20;;;4.50;59.10;;;;;;6259765;28;20033;-78
2022/12/11 02:59:47;;;;;;;11.75;6.40;;;4.50;59.20;;;;;;6243877;28;20045;-78
2022/12/11 03:02:48;;;;;;;12.18;5.88;;;4.50;59.30;;;;;;6249721;28;20030;-78
2022/12/11 03:05:49;;;;;;;11.70;5.40;;;4.40;59.30;;;;;;6231225;28;20440;-78
2022/12/11 03:08:53;;;;;;;8.50;5.40;;;4.40;59.30;;;;;;6236158;28;20091;-79
2022/12/11 03:11:54;;;;;;;8.70;5.05;;;4.40;59.30;;;;;;6237919;28;20458;-78
2022/12/11 03:14:59;;;;;;;12.73;5.90;;;4.30;59.20;;;;;;6214347;28;20076;-78
2022/12/11 03:18:11;;;;;;;12.75;5.85;;;4.30;59.30;;;;;;6265686;28;20041;-78
2022/12/11 03:21:36;;;;;;;13.52;6.13;;;4.20;59.40;;;;;;6259741;28;20033;-79
2022/12/11 03:24:45;;;;;;;9.07;4.32;;;4.20;59.50;;;;;;6246890;28;20041;-78
2022/12/11 03:27:58;;;;;;;13.05;5.95;;;4.20;59.50;;;;;;6216767;28;20083;-77
2022/12/11 03:31:04;;;;;;;9.45;4.85;;;4.20;59.60;;;;;;6250082;28;20033;-78
2022/12/11 03:34:15;;;;;;;10.40;5.75;;;4.20;59.50;;;;;;6245836;28;20116;-79
2022/12/11 03:37:17;;;;;;;20.90;7.07;;;4.20;59.60;;;;;;6246949;28;20034;-78
2022/12/11 03:40:21;;;;;;;13.63;6.45;;;4.20;59.60;;;;;;6245798;28;20076;-78
2022/12/11 03:43:22;;;;;;;14.27;6.75;;;4.20;59.60;;;;;;6246740;28;20041;-78
2022/12/11 03:46:29;;;;;;;8.13;4.88;;;4.20;59.60;;;;;;6247236;28;20037;-78
2022/12/11 03:49:35;;;;;;;13.60;7.30;;;4.20;59.70;;;;;;6247195;28;20477;-78
2022/12/11 03:52:38;;;;;;;12.23;5.22;;;4.20;59.70;;;;;;6262482;28;20061;-79
2022/12/11 03:55:40;;;;;;;14.52;6.95;;;4.20;59.70;;;;;;6245354;28;20042;-79
2022/12/11 03:58:41;;;;;;;14.35;6.22;;;4.20;59.70;;;;;;6244823;28;20064;-78
2022/12/11 04:01:42;;;;;;;11.90;5.50;;;4.20;59.70;;;;;;6246143;28;20169;-79
2022/12/11 04:04:43;;;;;;;13.88;7.10;;;4.20;59.60;;;;;;6260875;28;20029;-78
2022/12/11 04:07:44;;;;;;;13.98;5.78;;;4.20;59.60;;;;;;6260901;28;20060;-79
2022/12/11 04:10:45;;;;;;;11.82;5.50;;;4.20;59.60;;;;;;6262356;28;20033;-79
2022/12/11 04:15:00;;;;;;;9.73;4.53;;;4.20;59.60;;;;;;6262878;28;20124;-79
2022/12/11 04:17:06;;;;;;;14.75;6.60;;;4.20;59.60;;;;;;6221886;28;20040;-77
2022/12/11 04:26:47;;;;;;;11.50;6.60;;;4.10;59.80;;;;;;6246440;28;20041;-77
2022/12/11 04:29:48;;;;;;;15.55;5.57;;;4.10;59.90;;;;;;6246736;28;20421;-77
2022/12/11 04:32:50;;;;;;;14.43;5.93;;;4.10;59.90;;;;;;6245574;28;20049;-79
2022/12/11 04:35:51;;;;;;;14.50;6.05;;;4.10;60.00;;;;;;6246439;28;20037;-78
2022/12/11 04:38:51;;;;;;;21.17;6.72;;;4.10;60.00;;;;;;6246611;28;20394;-78
2022/12/11 04:41:52;;;;;;;24.13;6.93;;;4.10;60.10;;;;;;6245834;28;20044;-78
2022/12/11 04:44:53;;;;;;;13.13;6.00;;;4.00;60.10;;;;;;6261767;28;20095;-79
2022/12/11 04:47:54;;;;;;;10.73;3.97;;;4.00;60.20;;;;;;6243828;28;20060;-79
2022/12/11 04:50:55;;;;;;;9.90;4.90;;;4.00;60.30;;;;;;6245575;28;20049;-78
2022/12/11 04:53:57;;;;;;;12.70;5.63;;;4.00;60.30;;;;;;6244270;28;20132;-78
2022/12/11 04:56:58;;;;;;;19.88;6.03;;;4.00;60.30;;;;;;6259471;28;20033;-78
2022/12/11 05:00:03;;;;;;;17.13;7.45;;;4.00;60.30;;;;;;6243612;28;20482;-78
2022/12/11 05:03:04;;;;;;;12.40;5.55;;;4.00;60.30;;;;;;6243883;28;20048;-77
2022/12/11 05:06:05;;;;;;;14.18;6.43;;;4.00;60.30;;;;;;6243831;28;20030;-78
2022/12/11 05:09:10;;;;;;;16.63;6.75;;;4.00;60.30;;;;;;6226336;28;20045;-79
2022/12/11 05:12:11;;;;;;;12.20;6.95;;;4.00;60.30;;;;;;6244889;28;20041;-78
2022/12/11 05:15:12;;;;;;;14.02;6.38;;;4.00;60.30;;;;;;6236418;28;20049;-78
2022/12/11 05:18:13;;;;;;;10.80;4.63;;;4.00;60.50;;;;;;6244470;28;20115;-78
2022/12/11 05:21:15;;;;;;;15.80;6.28;;;4.00;60.50;;;;;;6245867;28;20083;-78
2022/12/11 05:24:15;;;;;;;12.27;6.05;;;4.00;60.60;;;;;;6245001;28;20037;-77
2022/12/11 05:27:16;;;;;;;19.13;6.53;;;4.00;60.50;;;;;;6204030;28;20053;-78
2022/12/11 05:30:17;;;;;;;17.33;5.82;;;3.90;60.50;;;;;;6216391;28;20033;-77
2022/12/11 05:33:18;;;;;;;13.90;6.32;;;3.90;60.60;;;;;;6222085;28;20038;-78
2022/12/11 05:36:25;;;;;;;12.57;6.32;;;3.90;60.70;;;;;;6218362;28;20042;-77
2022/12/11 05:39:26;;;;;;;17.48;7.00;;;3.90;60.90;;;;;;6234819;28;20050;-79
2022/12/11 05:42:26;;;;;;;14.02;6.32;;;3.80;60.90;;;;;;6220768;28;20068;-79
2022/12/11 05:45:27;;;;;;;13.70;6.35;;;3.80;61.00;;;;;;6211753;28;20073;-79
2022/12/11 05:48:28;;;;;;;14.25;6.57;;;3.80;61.00;;;;;;6232144;28;20037;-78
2022/12/11 05:51:29;;;;;;;25.67;7.00;;;3.80;60.80;;;;;;6218230;28;20141;-78
2022/12/11 05:54:30;;;;;;;12.90;5.90;;;3.80;60.80;;;;;;6217390;28;20058;-78
2022/12/11 05:57:31;;;;;;;15.88;7.18;;;3.80;60.70;;;;;;6218378;28;20041;-78
2022/12/11 06:00:33;;;;;;;12.52;6.07;;;3.80;60.70;;;;;;6226596;28;20076;-78
2022/12/11 06:03:34;;;;;;;10.73;6.30;;;3.70;60.60;;;;;;6219809;28;20052;-79
2022/12/11 06:06:35;;;;;;;19.02;5.47;;;3.70;60.60;;;;;;6218173;28;20050;-80
2022/12/11 06:09:36;;;;;;;9.15;3.92;;;3.70;60.60;;;;;;6222270;28;20112;-79
2022/12/11 06:12:37;;;;;;;19.85;7.05;;;3.70;60.70;;;;;;6251714;28;20049;-77
2022/12/11 06:15:38;;;;;;;10.13;5.88;;;3.70;60.60;;;;;;6246465;28;20060;-79
2022/12/11 06:18:43;;;;;;;12.70;5.18;;;3.70;60.50;;;;;;6248869;28;20047;-78
2022/12/11 06:21:47;;;;;;;15.10;6.50;;;3.70;60.50;;;;;;6251030;28;20041;-78
2022/12/11 06:24:48;;;;;;;10.23;4.20;;;3.70;60.50;;;;;;6248408;28;20462;-79
2022/12/11 06:27:49;;;;;;;8.38;5.32;;;3.70;60.40;;;;;;6248567;28;20041;-77
2022/12/11 06:30:50;;;;;;;17.80;6.38;;;3.70;60.30;;;;;;6228664;28;20041;-78
2022/12/11 06:33:51;;;;;;;14.27;5.70;;;3.70;60.30;;;;;;6238829;28;20029;-79
2022/12/11 06:36:51;;;;;;;14.43;6.22;;;3.70;60.30;;;;;;6242396;28;20521;-78
2022/12/11 06:39:52;;;;;;;11.68;5.50;;;3.70;60.30;;;;;;6259592;28;20091;-79
2022/12/11 06:42:53;;;;;;;11.63;5.80;;;3.70;60.40;;;;;;6247291;28;20475;-78
2022/12/11 06:45:54;;;;;;;11.82;5.50;;;3.80;60.40;;;;;;6249215;28;20026;-78
2022/12/11 06:48:55;;;;;;;13.27;6.15;;;3.80;60.50;;;;;;6265048;28;20045;-79
2022/12/11 06:51:57;;;;;;;17.98;6.88;;;3.80;60.60;;;;;;6247153;28;20033;-79
2022/12/11 06:54:59;;;;;;;13.60;5.78;;;3.80;60.50;;;;;;6247683;28;20478;-77
2022/12/11 06:58:00;;;;;;;11.60;4.80;;;3.80;60.40;;;;;;6246345;28;20033;-78
2022/12/11 07:01:02;;;;;;;19.20;8.77;;;3.80;60.30;;;;;;6248826;28;20045;-78
2022/12/11 07:04:02;;;;;;;9.52;5.25;;;3.90;60.30;;;;;;6249996;28;20034;-78
2022/12/11 07:07:03;;;;;;;12.55;5.90;;;3.90;60.20;;;;;;6247577;28;20048;-78
2022/12/11 07:10:04;;;;;;;13.25;6.05;;;3.90;60.20;;;;;;6263532;28;20045;-79
2022/12/11 07:13:05;;;;;;;13.73;6.40;;;3.90;60.20;;;;;;6263764;28;20052;-77
2022/12/11 07:16:09;;;;;;;14.88;5.03;;;3.90;60.10;;;;;;6239348;28;20038;-79
2022/12/11 07:19:10;;;;;;;12.85;7.82;;;3.90;60.10;;;;;;6222659;28;20064;-78
2022/12/11 07:22:11;;;;;;;13.45;5.57;;;3.90;60.00;;;;;;6222845;28;20471;-79
2022/12/11 07:25:12;;;;;;;12.88;5.65;;;3.90;60.00;;;;;;6224195;28;20161;-78
2022/12/11 07:28:14;;;;;;;17.98;7.22;;;3.80;59.90;;;;;;6224177;28;20494;-78
2022/12/11 07:31:20;;;;;;;9.25;5.53;;;3.80;59.90;;;;;;6225168;28;20038;-79
2022/12/11 07:34:21;;;;;;;15.90;5.45;;;3.80;59.90;;;;;;6248589;28;20120;-78
2022/12/11 07:37:22;;;;;;;9.25;5.05;;;3.80;59.90;;;;;;6244150;28;20072;-79
2022/12/11 07:40:23;;;;;;;9.00;4.38;;;3.80;59.80;;;;;;6257638;28;20466;-80
2022/12/11 07:43:24;;;;;;;15.75;6.40;;;3.80;59.90;;;;;;6244370;28;20049;-78
2022/12/11 07:46:28;;;;;;;19.85;6.55;;;3.80;59.90;;;;;;6244608;28;20071;-78
2022/12/11 07:49:29;;;;;;;8.38;4.30;;;3.70;59.80;;;;;;6245699;28;20037;-79
2022/12/11 07:52:32;;;;;;;16.55;6.75;;;3.80;59.90;;;;;;6260912;28;20439;-78
2022/12/11 07:55:34;;;;;;;16.98;5.82;;;3.80;59.90;;;;;;6244589;28;20037;-78
2022/12/11 07:58:35;;;;;;;21.67;7.50;;;3.80;59.80;;;;;;6246654;28;20092;-78
2022/12/11 08:01:37;;;;;;;16.02;6.18;;;3.80;59.70;;;;;;6247637;28;20040;-78
2022/12/11 08:04:38;;;;;;;16.23;6.43;;;3.90;59.70;;;;;;6236410;28;20034;-78
2022/12/11 08:07:39;;;;;;;11.07;5.53;;;3.90;59.60;;;;;;6246062;28;20053;-78
2022/12/11 08:10:41;;;;;;;11.15;5.35;;;3.90;59.50;;;;;;6221933;28;20362;-78
2022/12/11 08:13:42;;;;;;;10.73;5.90;;;3.90;59.50;;;;;;6221343;28;20053;-78
2022/12/11 08:16:43;;;;;;;17.25;6.53;;;3.90;59.50;;;;;;6221483;28;20124;-78
2022/12/11 08:19:44;;;;;;;12.73;5.30;;;3.90;59.50;;;;;;6220868;28;20061;-79
2022/12/11 08:22:45;;;;;;;16.73;6.57;;;3.90;59.50;;;;;;6220400;28;20056;-78
2022/12/11 08:25:46;;;;;;;14.95;7.03;;;3.90;59.50;;;;;;6221422;28;20362;-78
2022/12/11 08:28:48;;;;;;;14.55;5.60;;;4.00;59.50;;;;;;6220301;28;20153;-78
2022/12/11 08:31:49;;;;;;;11.18;4.97;;;4.00;59.30;;;;;;6214572;28;20042;-79
2022/12/11 08:34:50;;;;;;;21.85;7.03;;;4.00;59.30;;;;;;6217240;28;20410;-79
2022/12/11 08:37:51;;;;;;;12.63;5.57;;;4.00;59.20;;;;;;6219833;28;20375;-79
2022/12/11 08:40:52;;;;;;;14.13;6.40;;;4.00;59.20;;;;;;6234899;28;20038;-80
2022/12/11 08:43:54;;;;;;;14.68;6.32;;;4.00;59.10;;;;;;6259538;28;20088;-78
2022/12/11 08:46:55;;;;;;;23.92;6.70;;;4.00;59.20;;;;;;6257483;28;20483;-78
2022/12/11 08:49:56;;;;;;;17.38;6.60;;;4.00;59.10;;;;;;6231769;28;20113;-78
2022/12/11 08:52:57;;;;;;;12.98;6.90;;;4.00;59.10;;;;;;6220057;28;20030;-77
2022/12/11 08:56:06;;;;;;;9.50;5.35;;;4.10;59.10;;;;;;6220743;28;20085;-79
2022/12/11 08:59:07;;;;;;;13.30;6.05;;;4.10;59.00;;;;;;6222005;28;20572;-78
2022/12/11 09:02:11;;;;;;;17.55;7.15;;;4.00;58.90;;;;;;6238759;28;20179;-78
2022/12/11 09:05:12;;;;;;;8.63;5.10;;;4.00;59.00;;;;;;6262234;28;20071;-79
2022/12/11 09:08:13;;;;;;;14.55;5.55;;;4.00;59.00;;;;;;6250070;28;20033;-78
2022/12/11 09:11:22;;;;;;;15.88;6.00;;;4.10;59.10;;;;;;6254597;28;20466;-79
2022/12/11 09:14:23;;;;;;;16.17;7.10;;;4.10;59.00;;;;;;6247019;28;20054;-80
2022/12/11 09:17:24;;;;;;;16.60;7.25;;;4.10;59.00;;;;;;6245831;28;20049;-78
2022/12/11 09:20:25;;;;;;;14.82;7.18;;;4.10;59.00;;;;;;6245949;28;20069;-78
2022/12/11 09:23:26;;;;;;;13.13;6.63;;;4.10;59.00;;;;;;6259583;28;20057;-80
2022/12/11 09:26:29;;;;;;;25.00;9.15;;;4.20;58.90;;;;;;6244632;28;20106;-79
2022/12/11 09:29:30;;;;;;;13.60;5.68;;;4.20;58.70;;;;;;6259819;28;20051;-78
2022/12/11 09:32:30;;;;;;;13.23;7.25;;;4.30;58.80;;;;;;6244266;28;20458;-79
2022/12/11 09:35:31;;;;;;;20.80;7.43;;;4.30;58.80;;;;;;6226996;28;20086;-79
2022/12/11 09:38:33;;;;;;;19.73;8.38;;;4.30;58.80;;;;;;6241951;28;20045;-78
2022/12/11 09:41:37;;;;;;;18.02;7.53;;;4.40;59.30;;;;;;6245859;28;20098;-79
2022/12/11 09:44:45;;;;;;;17.02;6.70;;;4.50;58.60;;;;;;6246314;28;20025;-80
2022/12/11 09:47:53;;;;;;;15.52;6.72;;;4.60;58.50;;;;;;6261149;28;20409;-79
2022/12/11 09:50:54;;;;;;;13.90;6.57;;;4.70;58.40;;;;;;6246507;28;20022;-78
2022/12/11 09:53:58;;;;;;;15.93;6.95;;;4.80;58.30;;;;;;6220076;28;20058;-80
2022/12/11 09:57:09;;;;;;;16.33;7.47;;;4.80;58.30;;;;;;6234606;28;20413;-78
2022/12/11 10:00:27;;;;;;;24.33;8.60;;;5.00;58.10;;;;;;6256115;28;20473;-79
2022/12/11 10:03:56;;;;;;;18.73;6.50;;;5.10;57.80;;;;;;6241913;28;20057;-78
2022/12/11 10:07:15;;;;;;;15.65;5.95;;;5.10;57.80;;;;;;6246863;28;20433;-78
2022/12/11 10:10:34;;;;;;;;;;;5.30;57.80;;;;;;6258762;28;20201;-79
2022/12/11 10:14:17;;;;;;;17.83;7.85;;;5.50;57.50;;;;;;6243082;28;19925;-78
2022/12/11 10:17:32;;;;;;;18.48;7.38;;;5.70;56.90;;;;;;6240758;28;20033;-79
2022/12/11 10:20:38;;;;;;;15.13;7.43;;;5.80;56.40;;;;;;6232552;28;20480;-78
2022/12/11 10:24:00;;;;;;;21.17;9.15;;;5.90;56.30;;;;;;6237618;28;20066;-79
2022/12/11 10:27:21;;;;;;;18.92;7.68;;;6.00;56.20;;;;;;6235560;28;20048;-78
2022/12/11 10:30:26;;;;;;;17.95;7.90;;;6.20;56.10;;;;;;6240413;28;20109;-78
2022/12/11 10:33:55;;;;;;;15.40;7.20;;;6.30;55.80;;;;;;6240613;28;20048;-78
2022/12/11 10:36:56;;;;;;;19.05;7.80;;;6.40;55.30;;;;;;6227939;28;20124;-78
2022/12/11 10:39:57;;;;;;;20.70;7.28;;;6.50;55.00;;;;;;6229909;28;20052;-80
2022/12/11 10:42:58;;;;;;;18.33;7.93;;;6.50;54.80;;;;;;6231516;28;20044;-79
2022/12/11 10:45:59;;;;;;;22.73;8.93;;;6.70;54.80;;;;;;6216987;28;20030;-79
2022/12/11 10:49:01;;;;;;;23.40;7.85;;;6.80;54.70;;;;;;6216527;28;20547;-78
2022/12/11 10:52:18;;;;;;;15.60;6.93;;;7.00;54.40;;;;;;6216603;28;20071;-79
2022/12/11 10:55:29;;;;;;;18.85;7.97;;;7.10;54.10;;;;;;6242528;28;20436;-78
2022/12/11 10:58:32;;;;;;;28.13;8.40;;;7.30;54.00;;;;;;6241286;28;20033;-79
2022/12/11 11:01:33;;;;;;;19.92;8.43;;;7.30;53.70;;;;;;6253047;28;20099;-80
2022/12/11 11:04:37;;;;;;;28.13;8.25;;;7.20;53.60;;;;;;6258209;28;20755;-79
2022/12/11 11:07:37;;;;;;;22.75;8.45;;;7.30;53.70;;;;;;6243654;28;20057;-78
2022/12/11 11:10:56;;;;;;;17.45;8.02;;;7.30;53.50;;;;;;6258486;28;20047;-78
2022/12/11 11:14:16;;;;;;;21.45;8.68;;;7.40;53.40;;;;;;6243562;28;20052;-78
2022/12/11 11:17:18;;;;;;;16.63;7.72;;;7.50;53.20;;;;;;6240707;28;20416;-80
2022/12/11 11:20:28;;;;;;;26.17;9.65;;;7.50;53.10;;;;;;6240847;28;20093;-78
2022/12/11 11:23:29;;;;;;;20.33;9.50;;;7.60;53.30;;;;;;6237786;28;20466;-78
2022/12/11 11:26:32;;;;;;;15.77;6.25;;;8.20;52.70;;;;;;6256018;28;20175;-78
2022/12/11 11:29:36;;;;;;;24.75;8.73;;;8.60;51.40;;;;;;6224975;28;20375;-78
2022/12/11 11:32:38;;;;;;;21.13;8.88;;;8.60;51.00;;;;;;6243559;28;20127;-79
2022/12/11 11:35:50;;;;;;;21.73;9.13;;;8.50;51.20;;;;;;6244285;28;20072;-78
2022/12/11 11:38:57;;;;;;;18.17;8.75;;;8.40;51.40;;;;;;6242594;28;20500;-78
2022/12/11 11:42:17;;;;;;;18.03;7.70;;;8.30;51.50;;;;;;6219425;28;20033;-78
2022/12/11 11:45:30;;;;;;;20.52;8.25;;;8.30;51.40;;;;;;6234146;28;20529;-79
2022/12/11 11:48:54;;;;;;;21.40;8.15;;;8.20;51.20;;;;;;6219049;28;20042;-79
2022/12/11 11:52:25;;;;;;;21.67;8.82;;;8.20;51.70;;;;;;6193217;28;20038;-79
2022/12/11 11:55:32;;;;;;;28.40;8.95;;;8.20;51.60;;;;;;6233762;28;20402;-79
2022/12/11 11:59:03;;;;;;;22.08;8.88;;;8.20;51.50;;;;;;6234114;28;20362;-79
2022/12/11 12:02:14;;;;;;;29.10;9.52;;;8.20;51.70;;;;;;6212692;28;20030;-79
2022/12/11 12:05:16;;;;;;;25.25;8.68;;;8.20;51.60;;;;;;6219698;28;20614;-79
2022/12/11 12:09:10;;;;;;;22.08;7.88;;;8.30;51.60;;;;;;6221381;28;20367;-79
2022/12/11 12:12:25;;;;;;;22.48;8.65;;;8.30;51.50;;;;;;6224583;28;20057;-79
2022/12/11 12:15:42;;;;;;;17.05;5.80;;;8.30;51.30;;;;;;6240037;28;20542;-78
2022/12/11 12:18:51;;;;;;;15.05;7.47;;;8.20;50.70;;;;;;6222591;28;20033;-78
2022/12/11 12:21:53;;;;;;;16.38;7.53;;;8.20;50.80;;;;;;6204898;28;20041;-79
2022/12/11 12:25:06;;;;;;;16.65;6.95;;;8.10;50.80;;;;;;6223755;28;20068;-79
2022/12/11 12:28:21;;;;;;;25.40;8.20;;;8.00;50.70;;;;;;6205948;28;20044;-79
2022/12/11 12:31:36;;;;;;;21.92;9.02;;;7.90;50.60;;;;;;6235718;28;20037;-79
2022/12/11 12:34:43;;;;;;;19.20;7.63;;;7.80;51.00;;;;;;6172695;28;20084;-79
2022/12/11 12:37:47;;;;;;;22.50;8.38;;;7.80;51.00;;;;;;6180557;28;20387;-79
2022/12/11 12:41:13;;;;;;;16.55;7.28;;;7.80;50.80;;;;;;6188158;28;20057;-79
2022/12/11 12:44:21;;;;;;;17.08;7.10;;;7.90;50.80;;;;;;6167744;28;20039;-79
2022/12/11 12:47:23;;;;;;;22.02;8.93;;;7.90;50.80;;;;;;6191097;28;20042;-79
2022/12/11 12:50:28;;;;;;;21.10;9.05;;;7.90;50.90;;;;;;6174769;28;20056;-80
2022/12/11 12:53:33;;;;;;;21.67;8.07;;;8.00;51.20;;;;;;6199618;28;20034;-79
2022/12/11 12:56:36;;;;;;;16.73;7.43;;;8.30;51.00;;;;;;6231937;28;20072;-79
2022/12/11 12:59:37;;;;;;;16.55;7.60;;;8.50;50.80;;;;;;6213232;28;20398;-79
2022/12/11 13:02:49;;;;;;;18.95;8.27;;;8.60;50.10;;;;;;6199222;28;20045;-79
2022/12/11 13:06:08;;;;;;;21.38;9.13;;;8.50;49.90;;;;;;6217153;28;20049;-79
2022/12/11 13:09:26;;;;;;;19.58;8.52;;;8.50;49.80;;;;;;6215833;28;20045;-79
2022/12/11 13:12:44;;;;;;;19.67;8.48;;;8.50;50.10;;;;;;6216797;28;20050;-79
2022/12/11 13:15:45;;;;;;;20.42;8.60;;;8.50;50.20;;;;;;6214525;28;20077;-79
2022/12/11 13:18:47;;;;;;;30.70;8.50;;;8.70;50.10;;;;;;6217677;28;20050;-79
2022/12/11 13:22:09;;;;;;;22.30;9.27;;;8.70;49.80;;;;;;6215814;28;20037;-79
2022/12/11 13:25:30;;;;;;;20.33;8.60;;;8.50;49.70;;;;;;6255575;28;20033;-79
2022/12/11 13:28:37;;;;;;;21.17;9.13;;;8.40;50.00;;;;;;6240595;28;20152;-78
2022/12/11 13:31:39;;;;;;;19.05;7.55;;;8.20;50.30;;;;;;6243596;28;20033;-78
2022/12/11 13:34:43;;;;;;;23.95;9.57;;;8.10;50.50;;;;;;6242031;28;20049;-77
2022/12/11 13:37:46;;;;;;;33.03;8.80;;;8.10;50.80;;;;;;6240850;28;20052;-79
2022/12/11 13:40:53;;;;;;;24.08;9.43;;;8.10;51.00;;;;;;6256918;28;20422;-79
2022/12/11 13:43:56;;;;;;;21.75;8.93;;;8.00;51.10;;;;;;6256428;28;20548;-78
2022/12/11 13:46:59;;;;;;;20.42;9.73;;;7.90;51.20;;;;;;6235708;28;20032;-78
2022/12/11 13:50:23;;;;;;;24.85;8.57;;;7.90;51.40;;;;;;6251887;28;20034;-78
2022/12/11 13:53:24;;;;;;;17.48;7.95;;;7.80;51.40;;;;;;6244111;28;20041;-79
2022/12/11 13:56:25;;;;;;;24.52;9.00;;;7.70;51.60;;;;;;6238182;28;20044;-78
2022/12/11 13:59:40;;;;;;;20.70;8.57;;;7.60;51.70;;;;;;6259356;28;20041;-78
2022/12/11 14:02:41;;;;;;;24.40;8.00;;;7.50;51.90;;;;;;6243029;28;20060;-79
2022/12/11 14:05:42;;;;;;;24.25;8.70;;;7.40;52.00;;;;;;6255075;28;20041;-79
2022/12/11 14:08:47;;;;;;;19.42;7.80;;;7.40;52.20;;;;;;6237476;28;20040;-79
2022/12/11 14:11:48;;;;;;;24.42;8.35;;;7.40;52.30;;;;;;6257545;28;20033;-78
2022/12/11 14:14:55;;;;;;;19.77;8.57;;;7.40;52.40;;;;;;6224340;28;20067;-78
2022/12/11 14:17:59;;;;;;;16.92;7.90;;;7.40;52.40;;;;;;6243037;28;20479;-79
2022/12/11 14:21:04;;;;;;;17.48;7.00;;;7.30;52.30;;;;;;6259507;28;20037;-78
2022/12/11 14:24:12;;;;;;;18.45;7.82;;;7.30;52.30;;;;;;6258072;28;20398;-79
2022/12/11 14:27:15;;;;;;;20.50;8.40;;;7.30;52.40;;;;;;6250545;28;20048;-79
2022/12/11 14:30:26;;;;;;;22.00;7.38;;;7.30;52.40;;;;;;6260194;28;20403;-79
2022/12/11 14:33:36;;;;;;;20.25;8.30;;;7.30;52.50;;;;;;6235600;28;20050;-79
2022/12/11 14:36:38;;;;;;;19.33;8.52;;;7.20;52.50;;;;;;6244398;28;20029;-79
2022/12/11 14:39:54;;;;;;;17.38;7.32;;;7.20;52.60;;;;;;6241486;28;20111;-79
2022/12/11 14:43:00;;;;;;;20.48;7.35;;;7.20;52.50;;;;;;6232020;28;20129;-78
2022/12/11 14:46:07;;;;;;;22.83;7.85;;;7.20;52.60;;;;;;6257272;28;20033;-78
2022/12/11 14:49:27;;;;;;;16.83;7.60;;;7.20;52.60;;;;;;6258766;28;20117;-79
2022/12/11 14:52:34;;;;;;;16.60;7.40;;;7.20;52.70;;;;;;6216587;28;20053;-78
2022/12/11 14:55:36;;;;;;;15.30;8.02;;;7.10;52.60;;;;;;6218909;28;20487;-78
2022/12/11 14:58:43;;;;;;;20.40;8.00;;;7.10;52.80;;;;;;6215254;28;20058;-79
2022/12/11 15:01:44;;;;;;;15.48;7.38;;;7.10;52.90;;;;;;6195017;28;20093;-79
2022/12/11 15:04:57;;;;;;;17.17;7.88;;;7.10;52.90;;;;;;6218989;28;20545;-79
2022/12/11 15:08:23;;;;;;;16.45;7.55;;;7.10;53.00;;;;;;6242116;28;20079;-78
2022/12/11 15:11:30;;;;;;;15.07;7.20;;;7.00;53.00;;;;;;6245201;28;20069;-79
2022/12/11 15:14:32;;;;;;;22.50;8.68;;;7.10;53.10;;;;;;6247666;28;20084;-78
2022/12/11 15:17:36;;;;;;;19.42;7.43;;;7.00;53.10;;;;;;6247977;28;20033;-79
2022/12/11 15:20:37;;;;;;;21.73;9.38;;;7.00;53.20;;;;;;6249381;28;20048;-79
2022/12/11 15:23:59;;;;;;;15.30;7.13;;;6.90;53.20;;;;;;6249297;28;20505;-78
2022/12/11 15:27:00;;;;;;;19.38;8.48;;;6.90;53.40;;;;;;6264183;28;20033;-78
2022/12/11 15:30:16;;;;;;;21.75;7.13;;;6.80;53.40;;;;;;6254129;28;20037;-78
2022/12/11 15:33:20;;;;;;;24.08;8.40;;;6.70;53.60;;;;;;6248291;28;20041;-79
2022/12/11 15:36:29;;;;;;;28.13;8.35;;;6.60;53.70;;;;;;6271371;28;20044;-79
2022/12/11 15:39:30;;;;;;;20.52;7.68;;;6.50;53.90;;;;;;6273786;28;20041;-79
2022/12/11 15:42:38;;;;;;;20.75;8.48;;;6.50;54.00;;;;;;6288122;28;20033;-79
2022/12/11 15:45:39;;;;;;;25.77;8.05;;;6.50;54.10;;;;;;6246113;28;20089;-79
2022/12/11 15:48:40;;;;;;;19.95;8.23;;;6.40;54.20;;;;;;6243012;28;20060;-78
2022/12/11 15:51:41;;;;;;;15.25;6.65;;;6.40;54.40;;;;;;6220891;28;20038;-79
2022/12/11 15:54:42;;;;;;;19.30;7.20;;;6.30;54.40;;;;;;6243853;28;20128;-78
2022/12/11 15:57:53;;;;;;;17.20;8.15;;;6.20;54.60;;;;;;6261598;28;20474;-78
2022/12/11 16:00:56;;;;;;;21.45;7.50;;;6.20;54.70;;;;;;6220639;28;20107;-79
2022/12/11 16:03:57;;;;;;;19.65;8.18;;;6.20;54.80;;;;;;6222485;28;20324;-79
2022/12/11 16:06:57;;;;;;;15.25;7.45;;;6.20;54.90;;;;;;6222679;28;20042;-78
2022/12/11 16:09:58;;;;;;;20.55;7.75;;;6.20;55.00;;;;;;6246558;28;20040;-80
2022/12/11 16:13:01;;;;;;;19.67;8.85;;;6.20;55.00;;;;;;6247121;28;20115;-78